Time;durP1;ratioP1;P1;durP2;ratioP2;P2;SDS_P1;SDS_P2;PMS_P1;PMS_P2;Temp;Humidity;BMP_temperature;BMP_pressure;BME280_temperature;BME280_humidity;BME280_pressure;Samples;Min_cycle;Max_cycle;Signal;HPM_P1;HPM_P2
2022/06/19 00:01:10;;;;;;;3.85;1.50;;;15.60;99.90;;;;;;4963678;28;20424;-83
2022/06/19 00:03:44;;;;;;;4.53;1.60;;;15.50;99.90;;;;;;4959730;28;20043;-84
2022/06/19 00:06:10;;;;;;;0.63;0.40;;;15.50;99.90;;;;;;4958590;28;20047;-82
2022/06/19 00:08:35;;;;;;;1.08;0.75;;;15.50;99.90;;;;;;4959300;28;20069;-82
2022/06/19 00:11:02;;;;;;;2.58;1.42;;;15.50;99.90;;;;;;4974205;28;20055;-83
2022/06/19 00:13:28;;;;;;;8.70;1.23;;;15.40;99.90;;;;;;4960472;28;20443;-82
2022/06/19 00:15:54;;;;;;;4.45;1.52;;;15.40;99.90;;;;;;4973585;28;20059;-84
2022/06/19 00:18:20;;;;;;;7.03;1.52;;;15.40;99.90;;;;;;4958827;28;20031;-83
2022/06/19 00:20:46;;;;;;;3.72;1.50;;;15.40;99.90;;;;;;4960077;28;20573;-83
2022/06/19 00:23:12;;;;;;;2.85;1.58;;;15.40;99.90;;;;;;4958652;28;20117;-83
2022/06/19 00:25:37;;;;;;;5.88;1.77;;;15.40;99.90;;;;;;4957075;28;20104;-83
2022/06/19 00:28:04;;;;;;;2.05;1.08;;;15.40;99.90;;;;;;4981889;28;20134;-83
2022/06/19 00:30:30;;;;;;;5.88;1.80;;;15.40;99.90;;;;;;4959665;28;20043;-83
2022/06/19 00:32:57;;;;;;;3.63;1.42;;;15.40;99.90;;;;;;4958669;28;20054;-83
2022/06/19 00:35:26;;;;;;;0.90;0.90;;;15.40;99.90;;;;;;4962231;28;20519;-82
2022/06/19 00:37:51;;;;;;;7.85;1.63;;;15.40;99.90;;;;;;4962203;28;20815;-82
2022/06/19 00:40:17;;;;;;;10.93;2.45;;;15.40;99.90;;;;;;4961680;28;20050;-83
2022/06/19 00:42:43;;;;;;;3.35;1.75;;;15.40;99.90;;;;;;4960841;28;20046;-83
2022/06/19 00:45:28;;;;;;;1.92;1.00;;;15.40;99.90;;;;;;4962672;28;20123;-83
2022/06/19 00:47:53;;;;;;;4.25;1.67;;;15.30;99.90;;;;;;4972107;28;20046;-83
2022/06/19 00:50:34;;;;;;;2.78;1.23;;;15.30;99.90;;;;;;4979829;28;20042;-83
2022/06/19 00:53:01;;;;;;;2.17;1.63;;;15.20;99.90;;;;;;4980642;28;20046;-83
2022/06/19 00:55:36;;;;;;;1.63;1.10;;;15.20;99.90;;;;;;4981681;28;20046;-82
2022/06/19 00:58:11;;;;;;;2.13;1.27;;;15.10;99.90;;;;;;4981291;28;20043;-83
2022/06/19 01:00:38;;;;;;;2.00;0.75;;;15.10;99.90;;;;;;4980850;28;20061;-82
2022/06/19 01:03:13;;;;;;;4.88;1.58;;;15.10;99.90;;;;;;5020356;22;20061;-73
2022/06/19 01:05:41;;;;;;;5.60;1.23;;;15.10;99.90;;;;;;5041735;28;20080;-73
2022/06/19 01:08:07;;;;;;;3.65;1.02;;;15.10;99.90;;;;;;5024750;28;20544;-72
2022/06/19 01:10:38;;;;;;;8.60;1.27;;;15.10;99.90;;;;;;5043694;28;20032;-72
2022/06/19 01:13:03;;;;;;;4.60;1.40;;;15.10;99.90;;;;;;5025091;28;20510;-72
2022/06/19 01:15:29;;;;;;;3.88;1.58;;;15.00;99.90;;;;;;5043815;28;20084;-72
2022/06/19 01:17:59;;;;;;;4.35;1.58;;;15.10;99.90;;;;;;5042505;28;20049;-72
2022/06/19 01:20:27;;;;;;;9.40;1.30;;;15.10;99.90;;;;;;5041533;28;20526;-72
2022/06/19 01:23:12;;;;;;;3.58;1.70;;;15.10;99.90;;;;;;5043481;28;20052;-72
2022/06/19 01:25:40;;;;;;;3.03;1.25;;;15.10;99.90;;;;;;5043344;28;20071;-72
2022/06/19 01:31:01;;;;;;;1.35;1.15;;;15.10;99.90;;;;;;5041637;28;20364;-72
2022/06/19 01:33:31;;;;;;;2.97;1.33;;;15.10;99.90;;;;;;5043243;28;20051;-72
2022/06/19 01:35:58;;;;;;;12.65;2.17;;;15.10;99.90;;;;;;5043420;28;20037;-72
2022/06/19 01:38:26;;;;;;;3.83;1.55;;;15.10;99.90;;;;;;5041763;28;20055;-72
2022/06/19 01:40:57;;;;;;;3.47;1.75;;;15.10;99.90;;;;;;5042618;28;20044;-72
2022/06/19 01:43:23;;;;;;;3.85;1.63;;;15.10;99.90;;;;;;5042756;28;20132;-72
2022/06/19 01:45:53;;;;;;;7.03;1.35;;;15.10;99.90;;;;;;5041856;28;20124;-72
2022/06/19 01:48:21;;;;;;;3.33;1.58;;;15.20;99.90;;;;;;5058844;28;20048;-72
2022/06/19 01:50:48;;;;;;;2.58;1.50;;;15.20;99.90;;;;;;5061602;28;20037;-73
2022/06/19 01:53:24;;;;;;;6.43;1.75;;;15.20;99.90;;;;;;5048324;28;20060;-72
2022/06/19 01:55:51;;;;;;;7.32;1.50;;;15.10;99.90;;;;;;5042692;28;20045;-72
2022/06/19 01:58:19;;;;;;;3.05;1.58;;;15.10;99.90;;;;;;5041994;28;20033;-72
2022/06/19 02:00:47;;;;;;;2.75;1.10;;;15.10;99.90;;;;;;5042000;28;20081;-73
2022/06/19 02:03:23;;;;;;;5.78;1.17;;;15.10;99.90;;;;;;5042233;28;20060;-73
2022/06/19 02:05:49;;;;;;;3.10;2.63;;;15.10;99.90;;;;;;5042263;28;20457;-72
2022/06/19 02:08:16;;;;;;;3.33;1.52;;;15.10;99.90;;;;;;5042295;28;20083;-73
2022/06/19 02:10:45;;;;;;;2.40;1.25;;;15.10;99.90;;;;;;5041149;28;20045;-72
2022/06/19 02:13:13;;;;;;;3.03;1.38;;;15.10;99.90;;;;;;5041750;28;20080;-73
2022/06/19 02:15:38;;;;;;;4.95;2.05;;;15.10;99.90;;;;;;5021418;28;20086;-72
2022/06/19 02:18:07;;;;;;;5.72;1.70;;;15.10;99.90;;;;;;5021031;28;20595;-73
2022/06/19 02:20:33;;;;;;;4.72;1.35;;;15.10;99.90;;;;;;5021430;28;20049;-73
2022/06/19 02:23:00;;;;;;;4.32;1.58;;;15.00;99.90;;;;;;5031564;28;20045;-72
2022/06/19 02:25:26;;;;;;;4.50;1.67;;;15.10;99.90;;;;;;5042435;28;20045;-73
2022/06/19 02:27:52;;;;;;;2.35;1.25;;;15.00;99.90;;;;;;5042194;28;20047;-72
2022/06/19 02:30:18;;;;;;;3.42;1.67;;;15.00;99.90;;;;;;5041491;28;20745;-72
2022/06/19 02:32:49;;;;;;;6.75;1.77;;;15.00;99.90;;;;;;5039468;28;20041;-72
2022/06/19 02:35:23;;;;;;;3.38;1.70;;;15.00;99.90;;;;;;5041553;28;20434;-72
2022/06/19 02:37:53;;;;;;;7.50;1.92;;;15.00;99.90;;;;;;5041825;28;20040;-72
2022/06/19 02:40:23;;;;;;;6.03;1.67;;;15.00;99.90;;;;;;5040634;28;20083;-72
2022/06/19 02:42:50;;;;;;;2.30;1.02;;;15.10;99.90;;;;;;5040765;28;20465;-72
2022/06/19 02:45:19;;;;;;;6.85;2.22;;;15.10;99.90;;;;;;5041453;28;20565;-71
2022/06/19 02:47:46;;;;;;;4.20;1.50;;;15.10;99.90;;;;;;5052157;28;20056;-72
2022/06/19 02:50:22;;;;;;;2.78;0.93;;;15.10;99.90;;;;;;5061559;28;20133;-72
2022/06/19 02:52:49;;;;;;;7.38;2.05;;;15.10;99.90;;;;;;5060314;28;20043;-72
2022/06/19 02:55:16;;;;;;;3.60;1.48;;;15.10;99.90;;;;;;5060282;28;20451;-72
2022/06/19 02:57:42;;;;;;;7.50;1.80;;;15.10;99.90;;;;;;5059937;28;20052;-71
2022/06/19 03:00:12;;;;;;;3.75;2.42;;;15.10;99.90;;;;;;5061143;28;20354;-72
2022/06/19 03:02:38;;;;;;;0.95;0.90;;;14.90;99.90;;;;;;5060442;28;20121;-72
2022/06/19 03:05:05;;;;;;;3.13;1.50;;;14.70;99.90;;;;;;5060818;28;20533;-71
2022/06/19 03:07:31;;;;;;;7.40;2.97;;;14.50;99.90;;;;;;5047270;28;20045;-71
2022/06/19 03:09:57;;;;;;;3.30;1.92;;;14.30;99.90;;;;;;5039794;28;20052;-73
2022/06/19 03:12:23;;;;;;;9.40;3.03;;;14.10;99.90;;;;;;5039961;28;20037;-74
2022/06/19 03:14:49;;;;;;;4.43;1.77;;;14.00;99.90;;;;;;5057046;28;20080;-73
2022/06/19 03:17:18;;;;;;;4.93;1.85;;;13.90;99.90;;;;;;5059124;28;20491;-74
2022/06/19 03:19:43;;;;;;;8.38;1.58;;;13.90;99.90;;;;;;5061804;28;20044;-74
2022/06/19 03:22:10;;;;;;;10.48;2.22;;;13.90;99.90;;;;;;5061789;28;20044;-74
2022/06/19 03:24:36;;;;;;;4.25;1.73;;;13.90;99.90;;;;;;5061331;28;20151;-74
2022/06/19 03:27:02;;;;;;;5.38;1.90;;;13.90;99.90;;;;;;5061411;28;20036;-76
2022/06/19 03:29:28;;;;;;;5.50;1.88;;;13.80;99.90;;;;;;5062066;28;20047;-74
2022/06/19 03:31:54;;;;;;;6.60;1.35;;;13.80;99.90;;;;;;5059132;28;20048;-74
2022/06/19 03:34:19;;;;;;;13.02;2.70;;;13.60;99.90;;;;;;5060427;28;20093;-74
2022/06/19 03:36:45;;;;;;;3.08;1.63;;;13.60;99.90;;;;;;5033523;28;20067;-75
2022/06/19 03:39:10;;;;;;;5.63;1.25;;;13.60;99.90;;;;;;5041220;28;20391;-75
2022/06/19 03:41:38;;;;;;;7.88;1.75;;;13.50;99.90;;;;;;5041443;28;20049;-75
2022/06/19 03:44:05;;;;;;;3.92;1.42;;;13.40;99.90;;;;;;5041444;28;20106;-76
2022/06/19 03:46:31;;;;;;;3.05;1.50;;;13.30;99.90;;;;;;5040744;28;20128;-75
2022/06/19 03:48:56;;;;;;;6.00;1.52;;;13.20;99.90;;;;;;5041611;28;20049;-75
2022/06/19 03:51:23;;;;;;;11.45;1.70;;;13.20;99.90;;;;;;5041218;28;20053;-75
2022/06/19 03:53:49;;;;;;;3.78;1.35;;;13.20;99.90;;;;;;5040078;28;20080;-75
2022/06/19 03:56:17;;;;;;;4.47;1.95;;;13.10;99.90;;;;;;5041133;28;20033;-75
2022/06/19 03:58:46;;;;;;;2.17;1.35;;;13.10;99.90;;;;;;5040013;28;20052;-76
2022/06/19 04:01:19;;;;;;;2.78;1.23;;;13.00;99.90;;;;;;5040681;28;20053;-77
2022/06/19 04:03:45;;;;;;;4.00;1.48;;;12.90;99.90;;;;;;5039438;28;20111;-77
2022/06/19 04:06:12;;;;;;;5.65;2.45;;;12.90;99.90;;;;;;5040771;28;20052;-77
2022/06/19 04:08:40;;;;;;;1.88;1.67;;;12.80;99.90;;;;;;5042749;28;20056;-77
2022/06/19 04:11:06;;;;;;;6.25;2.55;;;12.80;99.90;;;;;;5044940;28;20029;-76
2022/06/19 04:13:36;;;;;;;9.20;1.67;;;12.70;99.90;;;;;;5045249;28;20561;-76
2022/06/19 04:16:03;;;;;;;9.68;1.88;;;12.60;99.90;;;;;;5042890;28;20044;-75
2022/06/19 04:18:30;;;;;;;12.38;1.80;;;12.60;99.90;;;;;;5043296;28;20098;-76
2022/06/19 04:20:58;;;;;;;2.58;1.58;;;12.50;99.90;;;;;;5044695;28;20048;-76
2022/06/19 04:23:25;;;;;;;3.20;2.17;;;12.50;99.90;;;;;;5044387;28;20454;-76
2022/06/19 04:25:51;;;;;;;5.15;2.83;;;12.50;99.90;;;;;;5045054;28;20099;-76
2022/06/19 04:28:18;;;;;;;8.52;2.28;;;12.50;99.90;;;;;;5043219;28;20053;-75
2022/06/19 04:30:46;;;;;;;6.05;2.05;;;12.60;99.90;;;;;;5043692;28;20033;-75
2022/06/19 04:33:16;;;;;;;6.68;2.40;;;12.60;99.90;;;;;;5043306;28;20506;-75
2022/06/19 04:35:43;;;;;;;4.15;2.10;;;12.60;99.90;;;;;;5043487;28;20721;-76
2022/06/19 04:38:09;;;;;;;5.65;2.35;;;12.60;99.90;;;;;;5044780;28;20041;-75
2022/06/19 04:40:35;;;;;;;6.47;1.85;;;12.60;99.90;;;;;;5044947;28;20041;-75
2022/06/19 04:43:01;;;;;;;8.00;1.83;;;12.60;99.90;;;;;;5043121;28;20052;-75
2022/06/19 04:45:27;;;;;;;8.88;2.38;;;12.50;99.90;;;;;;5043552;28;20074;-75
2022/06/19 04:47:53;;;;;;;5.10;2.15;;;12.50;99.90;;;;;;5043895;28;20072;-75
2022/06/19 04:50:18;;;;;;;10.68;2.10;;;12.40;99.90;;;;;;5044719;28;20153;-76
2022/06/19 04:52:44;;;;;;;8.88;3.03;;;12.40;99.90;;;;;;5042574;28;20163;-75
2022/06/19 04:55:12;;;;;;;7.88;2.22;;;12.40;99.90;;;;;;5042953;28;20130;-75
2022/06/19 04:57:38;;;;;;;5.28;1.85;;;12.40;99.90;;;;;;5044152;28;20206;-77
2022/06/19 05:00:06;;;;;;;5.40;1.17;;;12.40;99.90;;;;;;5043278;28;20111;-75
2022/06/19 05:02:31;;;;;;;4.70;1.88;;;12.40;99.90;;;;;;5043613;28;20048;-75
2022/06/19 05:04:57;;;;;;;1.98;1.42;;;12.30;99.90;;;;;;5043665;28;20291;-75
2022/06/19 05:07:23;;;;;;;5.88;2.35;;;12.40;99.90;;;;;;5042226;28;20044;-75
2022/06/19 05:09:48;;;;;;;1.95;0.85;;;12.30;99.90;;;;;;5043848;28;20033;-75
2022/06/19 05:12:14;;;;;;;2.67;1.17;;;12.30;99.90;;;;;;5042426;28;20132;-74
2022/06/19 05:14:39;;;;;;;5.43;2.10;;;12.30;99.90;;;;;;5043608;28;20086;-75
2022/06/19 05:17:05;;;;;;;1.33;1.15;;;12.30;99.90;;;;;;5043402;28;20044;-75
2022/06/19 05:19:30;;;;;;;4.40;1.27;;;12.20;99.90;;;;;;5041882;28;20051;-75
2022/06/19 05:22:00;;;;;;;4.60;1.20;;;12.20;99.90;;;;;;5042194;28;20056;-75
2022/06/19 05:24:26;;;;;;;3.13;1.73;;;12.10;99.90;;;;;;5043825;28;20036;-75
2022/06/19 05:26:52;;;;;;;3.00;1.02;;;12.20;99.90;;;;;;5043577;28;20120;-74
2022/06/19 05:29:18;;;;;;;2.92;1.95;;;12.20;99.90;;;;;;5042136;28;20045;-75
2022/06/19 05:31:44;;;;;;;1.35;1.05;;;12.20;99.90;;;;;;5042442;28;20099;-75
2022/06/19 05:34:10;;;;;;;0.77;0.55;;;12.20;99.90;;;;;;5043351;28;20450;-76
2022/06/19 05:36:35;;;;;;;4.03;1.48;;;12.20;99.90;;;;;;5042611;28;20486;-75
2022/06/19 05:39:01;;;;;;;4.10;1.23;;;12.20;99.90;;;;;;5041977;28;20080;-75
2022/06/19 05:41:29;;;;;;;7.20;1.67;;;12.30;99.90;;;;;;5042054;28;20047;-75
2022/06/19 05:43:54;;;;;;;1.48;1.08;;;12.30;99.90;;;;;;5043373;28;20041;-74
2022/06/19 05:46:20;;;;;;;2.63;1.13;;;12.30;99.90;;;;;;5042081;28;20041;-74
2022/06/19 05:48:47;;;;;;;2.78;1.30;;;12.40;99.90;;;;;;5043111;28;20033;-75
2022/06/19 05:51:16;;;;;;;5.07;1.65;;;12.40;99.90;;;;;;5043338;28;20087;-75
2022/06/19 05:53:49;;;;;;;2.65;1.20;;;12.40;99.90;;;;;;5043093;28;20036;-75
2022/06/19 05:56:16;;;;;;;2.30;1.85;;;12.40;99.90;;;;;;5043027;28;20044;-75
2022/06/19 05:58:41;;;;;;;2.38;1.10;;;12.40;99.90;;;;;;5042807;28;20045;-75
2022/06/19 06:01:09;;;;;;;2.78;1.95;;;12.50;99.90;;;;;;5040771;28;20052;-74
2022/06/19 06:03:35;;;;;;;1.13;0.98;;;12.50;99.90;;;;;;5042776;28;20088;-75
2022/06/19 06:06:07;;;;;;;1.55;1.30;;;12.60;99.90;;;;;;5041214;28;20412;-74
2022/06/19 06:08:36;;;;;;;5.68;1.65;;;12.60;99.90;;;;;;5042724;28;20670;-75
2022/06/19 06:11:02;;;;;;;2.90;1.52;;;12.60;99.90;;;;;;5042562;28;20044;-74
2022/06/19 06:13:29;;;;;;;1.27;0.90;;;12.60;99.90;;;;;;5042679;28;20049;-74
2022/06/19 06:15:55;;;;;;;5.28;1.75;;;12.60;99.90;;;;;;5041873;28;20060;-74
2022/06/19 06:18:21;;;;;;;2.83;1.88;;;12.60;99.90;;;;;;5042358;28;20025;-74
2022/06/19 06:21:01;;;;;;;5.43;1.33;;;12.70;99.90;;;;;;5042749;28;20048;-74
2022/06/19 06:23:28;;;;;;;1.65;1.42;;;12.70;99.90;;;;;;5041845;28;20063;-75
2022/06/19 06:26:08;;;;;;;3.75;0.77;;;12.70;99.90;;;;;;5041080;28;20045;-74
2022/06/19 06:28:35;;;;;;;6.10;1.25;;;12.70;99.90;;;;;;5042138;28;20049;-74
2022/06/19 06:31:01;;;;;;;5.13;1.48;;;12.70;99.90;;;;;;5040969;28;20075;-74
2022/06/19 06:33:27;;;;;;;2.28;1.65;;;12.80;99.90;;;;;;5041451;28;20041;-74
2022/06/19 06:35:53;;;;;;;9.77;1.50;;;12.80;99.90;;;;;;5042244;28;20411;-75
2022/06/19 06:38:19;;;;;;;4.82;1.88;;;12.80;99.90;;;;;;5042158;28;20039;-74
2022/06/19 06:40:45;;;;;;;6.68;1.30;;;12.80;99.90;;;;;;5041592;28;20037;-74
2022/06/19 06:43:10;;;;;;;2.47;1.20;;;12.80;99.90;;;;;;5041275;28;20049;-74
2022/06/19 06:45:36;;;;;;;1.63;1.30;;;12.80;99.90;;;;;;5040012;28;20487;-74
2022/06/19 06:48:02;;;;;;;2.35;1.50;;;12.80;99.90;;;;;;5040280;28;20049;-75
2022/06/19 06:50:28;;;;;;;3.33;1.10;;;12.70;99.90;;;;;;5040924;28;20049;-74
2022/06/19 06:52:54;;;;;;;2.20;1.30;;;12.80;99.90;;;;;;5057291;28;20128;-74
2022/06/19 06:55:20;;;;;;;6.30;1.50;;;12.70;99.90;;;;;;5040967;28;20460;-74
2022/06/19 06:57:46;;;;;;;4.28;1.10;;;12.70;99.90;;;;;;5042203;28;20119;-75
2022/06/19 07:00:16;;;;;;;1.20;1.00;;;12.70;99.90;;;;;;5039728;28;20445;-74
2022/06/19 07:02:42;;;;;;;2.25;1.67;;;12.70;99.90;;;;;;5041950;28;20079;-74
2022/06/19 07:05:08;;;;;;;3.75;1.10;;;12.70;99.90;;;;;;5041147;28;20049;-74
2022/06/19 07:07:34;;;;;;;2.25;1.42;;;12.70;99.90;;;;;;5041519;28;20091;-74
2022/06/19 07:09:59;;;;;;;1.42;1.05;;;12.70;99.90;;;;;;5041655;28;20446;-74
2022/06/19 07:12:25;;;;;;;2.55;1.27;;;12.70;99.90;;;;;;5041573;28;20048;-74
2022/06/19 07:14:51;;;;;;;9.07;1.30;;;12.70;99.90;;;;;;5040704;28;20064;-74
2022/06/19 07:17:17;;;;;;;4.57;1.15;;;12.70;99.90;;;;;;5041531;28;20044;-74
2022/06/19 07:19:42;;;;;;;2.72;1.13;;;12.60;99.90;;;;;;5041423;28;20476;-74
2022/06/19 07:22:12;;;;;;;3.00;0.65;;;12.60;99.90;;;;;;5041416;28;20586;-74
2022/06/19 07:24:37;;;;;;;2.15;1.30;;;12.70;99.90;;;;;;5041533;28;20041;-74
2022/06/19 07:27:03;;;;;;;1.20;1.00;;;12.70;99.90;;;;;;5041104;28;20060;-74
2022/06/19 07:29:29;;;;;;;4.43;1.08;;;12.70;99.90;;;;;;5041501;28;20037;-74
2022/06/19 07:31:54;;;;;;;6.25;1.88;;;12.70;99.90;;;;;;5039723;28;20186;-74
2022/06/19 07:34:20;;;;;;;1.75;1.20;;;12.70;99.90;;;;;;5040081;28;20044;-74
2022/06/19 07:36:46;;;;;;;4.97;0.70;;;12.80;99.90;;;;;;5040626;28;20629;-74
2022/06/19 07:39:12;;;;;;;2.17;1.17;;;12.80;99.90;;;;;;5040134;28;20072;-74
2022/06/19 07:41:37;;;;;;;4.78;0.60;;;12.80;99.90;;;;;;5041549;28;20114;-74
2022/06/19 07:44:03;;;;;;;11.95;1.35;;;12.90;99.90;;;;;;5043976;28;20510;-74
2022/06/19 07:46:28;;;;;;;2.75;1.17;;;12.90;99.90;;;;;;5044301;28;20119;-74
2022/06/19 07:51:38;;;;;;;3.72;1.52;;;13.00;99.90;;;;;;5045056;28;20059;-74
2022/06/19 07:54:04;;;;;;;2.67;0.95;;;13.00;99.90;;;;;;5044246;28;20041;-74
2022/06/19 07:56:30;;;;;;;4.43;1.15;;;13.10;99.90;;;;;;5044186;28;20052;-74
2022/06/19 07:58:55;;;;;;;0.52;0.50;;;13.00;99.90;;;;;;5043062;28;20045;-74
2022/06/19 08:01:21;;;;;;;0.50;0.50;;;13.10;99.90;;;;;;5042631;28;20479;-74
2022/06/19 08:03:47;;;;;;;1.00;0.93;;;13.10;99.90;;;;;;5043434;28;20049;-74
2022/06/19 08:06:14;;;;;;;2.05;1.08;;;13.00;99.90;;;;;;5044731;28;20746;-74
2022/06/19 08:08:40;;;;;;;2.15;1.05;;;13.00;99.90;;;;;;5044197;28;20055;-74
2022/06/19 08:11:06;;;;;;;3.60;1.13;;;13.00;99.90;;;;;;5043646;28;20055;-74
2022/06/19 08:13:33;;;;;;;2.28;1.08;;;13.10;99.90;;;;;;5044892;28;20454;-74
2022/06/19 08:16:03;;;;;;;5.40;1.50;;;13.10;99.90;;;;;;5042290;28;20033;-74
2022/06/19 08:18:29;;;;;;;4.65;0.90;;;13.10;99.90;;;;;;5044843;28;20079;-75
2022/06/19 08:20:54;;;;;;;1.35;1.02;;;13.20;99.90;;;;;;5042753;28;20036;-74
2022/06/19 08:23:20;;;;;;;2.95;1.85;;;13.10;99.90;;;;;;5048658;28;20510;-75
2022/06/19 08:25:46;;;;;;;2.05;1.40;;;13.20;99.90;;;;;;5043488;28;20899;-74
2022/06/19 08:28:15;;;;;;;1.35;1.08;;;13.20;99.90;;;;;;5044557;28;20064;-74
2022/06/19 08:30:42;;;;;;;1.35;0.85;;;13.20;99.90;;;;;;5043523;28;20064;-75
2022/06/19 08:33:08;;;;;;;2.05;0.98;;;13.20;99.90;;;;;;5044487;28;20045;-77
2022/06/19 08:35:44;;;;;;;4.03;1.02;;;13.30;99.90;;;;;;5042411;28;20442;-74
2022/06/19 08:38:17;;;;;;;1.08;0.60;;;13.30;99.90;;;;;;5043189;28;20537;-74
2022/06/19 08:41:20;;;;;;;3.15;1.05;;;13.30;99.90;;;;;;5042600;28;20094;-74
2022/06/19 08:44:01;;;;;;;3.47;1.50;;;13.40;99.90;;;;;;4993460;28;20061;-74
2022/06/19 08:46:50;;;;;;;5.03;0.90;;;13.40;99.90;;;;;;5041503;28;20049;-74
2022/06/19 08:49:37;;;;;;;2.33;1.27;;;13.40;99.90;;;;;;5046872;28;20040;-75
2022/06/19 08:52:26;;;;;;;1.90;0.98;;;13.60;99.90;;;;;;5043877;28;20044;-77
2022/06/19 08:55:23;;;;;;;2.15;1.05;;;13.60;99.90;;;;;;5030263;28;20048;-77
2022/06/19 08:57:54;;;;;;;2.30;0.98;;;13.70;99.90;;;;;;5059372;28;20486;-75
2022/06/19 09:00:34;;;;;;;1.45;0.63;;;13.70;99.90;;;;;;5023648;28;20045;-76
2022/06/19 09:03:28;;;;;;;0.77;0.60;;;13.80;99.90;;;;;;5038216;28;20050;-76
2022/06/19 09:06:04;;;;;;;0.70;0.57;;;13.90;99.90;;;;;;5056487;28;20041;-75
2022/06/19 09:09:03;;;;;;;2.00;0.93;;;13.90;99.90;;;;;;5034745;28;20124;-75
2022/06/19 09:11:46;;;;;;;1.60;0.70;;;13.90;99.90;;;;;;5046885;28;20051;-75
2022/06/19 09:14:46;;;;;;;0.30;0.30;;;14.00;99.90;;;;;;5044839;28;20703;-75
2022/06/19 09:17:50;;;;;;;1.67;1.20;;;13.90;99.90;;;;;;5013957;28;20076;-76
2022/06/19 09:20:23;;;;;;;1.75;0.77;;;13.90;99.90;;;;;;4975985;28;20042;-75
2022/06/19 09:23:10;;;;;;;2.28;1.00;;;13.90;99.90;;;;;;5036155;28;20079;-78
2022/06/19 09:25:50;;;;;;;0.50;0.50;;;14.00;99.90;;;;;;5053047;28;20195;-76
2022/06/19 09:28:25;;;;;;;1.58;1.27;;;13.90;99.90;;;;;;5043816;28;20559;-76
2022/06/19 09:30:59;;;;;;;3.28;0.73;;;14.00;99.90;;;;;;5041160;28;20044;-76
2022/06/19 09:33:57;;;;;;;0.95;0.90;;;14.00;99.90;;;;;;5043125;28;20044;-75
2022/06/19 09:36:33;;;;;;;2.58;1.73;;;14.00;99.90;;;;;;5042546;28;20103;-76
2022/06/19 09:39:07;;;;;;;3.53;1.00;;;14.00;99.90;;;;;;5022402;28;20049;-76
2022/06/19 09:41:35;;;;;;;5.45;1.60;;;14.00;99.90;;;;;;5022899;28;20045;-78
2022/06/19 09:44:04;;;;;;;8.63;1.40;;;14.10;99.90;;;;;;5005677;28;20053;-74
2022/06/19 09:46:54;;;;;;;6.25;1.20;;;14.10;99.90;;;;;;5039631;28;20052;-74
2022/06/19 09:49:22;;;;;;;2.03;0.95;;;14.10;99.90;;;;;;5032325;28;20045;-77
2022/06/19 09:52:06;;;;;;;1.73;0.77;;;14.20;99.90;;;;;;5038622;28;20101;-75
2022/06/19 09:54:37;;;;;;;3.95;0.43;;;14.30;99.90;;;;;;5042313;28;20488;-75
2022/06/19 09:57:28;;;;;;;1.48;1.13;;;14.30;99.90;;;;;;5058038;28;20047;-74
2022/06/19 10:00:13;;;;;;;0.53;0.53;;;14.40;99.90;;;;;;5039704;28;20064;-75
2022/06/19 10:02:49;;;;;;;1.25;0.82;;;14.40;99.90;;;;;;5036112;28;20741;-74
2022/06/19 10:05:36;;;;;;;1.17;0.90;;;14.40;99.90;;;;;;5026728;28;20053;-73
2022/06/19 10:08:09;;;;;;;1.92;0.73;;;14.50;99.90;;;;;;5033020;28;20049;-73
2022/06/19 10:10:43;;;;;;;2.72;0.80;;;14.50;99.90;;;;;;5042106;28;20048;-72
2022/06/19 10:13:16;;;;;;;0.80;0.80;;;14.50;99.90;;;;;;5031150;28;20507;-73
2022/06/19 10:15:44;;;;;;;1.00;0.52;;;14.60;99.90;;;;;;5040099;28;20389;-80
2022/06/19 10:18:31;;;;;;;1.08;0.88;;;14.70;99.90;;;;;;5041217;28;20124;-73
2022/06/19 10:24:40;;;;;;;0.85;0.80;;;14.80;99.90;;;;;;5034099;28;20188;-74
2022/06/19 10:27:29;;;;;;;0.47;0.47;;;14.90;99.90;;;;;;5031726;28;20806;-74
2022/06/19 10:30:03;;;;;;;1.63;0.80;;;15.00;99.90;;;;;;5033749;28;20044;-73
2022/06/19 10:32:42;;;;;;;4.82;0.82;;;15.00;99.90;;;;;;5036913;28;20569;-73
2022/06/19 10:35:32;;;;;;;2.05;0.85;;;15.00;99.90;;;;;;5038322;28;20051;-73
2022/06/19 10:38:36;;;;;;;7.53;1.30;;;15.00;99.90;;;;;;5035724;28;20060;-73
2022/06/19 10:44:45;;;;;;;0.50;0.50;;;15.20;99.90;;;;;;5044127;28;20097;-74
2022/06/19 10:47:26;;;;;;;2.53;0.93;;;15.20;99.90;;;;;;5057697;28;20391;-73
2022/06/19 10:50:20;;;;;;;0.90;0.50;;;15.30;99.90;;;;;;5041400;28;20048;-73
2022/06/19 10:53:24;;;;;;;1.65;0.95;;;15.40;99.90;;;;;;5039589;28;20440;-73
2022/06/19 10:56:27;;;;;;;1.20;0.55;;;15.40;99.90;;;;;;5020195;28;20045;-76
2022/06/19 10:58:54;;;;;;;1.52;0.73;;;15.50;99.90;;;;;;5046141;28;20061;-76
2022/06/19 11:04:13;;;;;;;1.75;1.13;;;15.50;99.90;;;;;;5038811;28;20162;-76
2022/06/19 11:06:57;;;;;;;2.00;0.85;;;15.50;99.90;;;;;;5039767;28;20056;-77
2022/06/19 11:09:37;;;;;;;2.28;1.05;;;15.60;99.90;;;;;;5048900;28;20177;-76
2022/06/19 11:12:26;;;;;;;1.08;0.98;;;15.60;99.90;;;;;;5051403;28;20064;-76
2022/06/19 11:14:58;;;;;;;1.58;0.90;;;15.70;99.90;;;;;;5020572;28;20077;-76
2022/06/19 11:17:32;;;;;;;4.95;1.35;;;15.60;99.90;;;;;;5020056;28;20049;-76
2022/06/19 11:19:58;;;;;;;2.05;0.70;;;15.70;99.90;;;;;;5022907;28;20052;-72
2022/06/19 11:22:37;;;;;;;1.70;1.20;;;15.70;99.90;;;;;;5040301;28;20033;-73
2022/06/19 11:25:21;;;;;;;4.95;1.33;;;15.60;99.90;;;;;;5035117;28;20061;-73
2022/06/19 11:28:00;;;;;;;1.52;0.82;;;15.70;99.90;;;;;;5059606;28;20124;-77
2022/06/19 11:30:38;;;;;;;3.10;0.75;;;15.70;99.90;;;;;;5039886;28;20052;-78
2022/06/19 11:33:15;;;;;;;1.77;1.00;;;15.70;99.90;;;;;;5040341;28;20056;-75
2022/06/19 11:35:53;;;;;;;1.40;0.80;;;15.70;99.90;;;;;;5038611;28;20078;-75
2022/06/19 11:38:37;;;;;;;1.27;1.02;;;15.70;99.90;;;;;;5038942;28;20045;-76
2022/06/19 11:41:21;;;;;;;5.50;1.05;;;15.70;99.90;;;;;;5038872;28;20321;-75
2022/06/19 11:44:11;;;;;;;2.75;0.95;;;15.60;99.90;;;;;;5038222;28;20052;-73
2022/06/19 11:46:48;;;;;;;2.45;1.05;;;15.70;99.90;;;;;;5038983;28;20049;-74
2022/06/19 11:49:31;;;;;;;1.65;0.70;;;15.70;99.90;;;;;;5039584;28;20053;-74
2022/06/19 11:52:01;;;;;;;8.43;1.05;;;15.60;99.90;;;;;;4984680;28;20109;-75
2022/06/19 11:54:40;;;;;;;2.60;1.08;;;15.70;99.90;;;;;;4981233;28;20493;-73
2022/06/19 11:57:13;;;;;;;2.08;0.82;;;15.70;99.90;;;;;;4980786;28;20389;-76
2022/06/19 11:59:45;;;;;;;3.35;0.70;;;15.80;99.90;;;;;;4980121;28;20575;-75
2022/06/19 12:02:30;;;;;;;5.05;0.68;;;15.80;99.90;;;;;;4981003;28;20347;-76
2022/06/19 12:05:00;;;;;;;2.50;0.90;;;15.90;99.90;;;;;;4980054;28;20764;-74
2022/06/19 12:07:29;;;;;;;1.35;1.00;;;16.00;99.90;;;;;;4980025;28;20125;-73
2022/06/19 12:10:04;;;;;;;5.43;1.35;;;16.00;99.90;;;;;;4980003;28;20425;-74
2022/06/19 12:12:32;;;;;;;0.65;0.45;;;16.10;99.90;;;;;;4981321;28;20129;-75
2022/06/19 12:15:13;;;;;;;2.70;1.10;;;16.20;99.90;;;;;;4993893;28;20169;-75
2022/06/19 12:17:44;;;;;;;7.80;1.00;;;16.20;99.90;;;;;;4980211;28;20054;-74
2022/06/19 12:20:09;;;;;;;1.33;0.82;;;16.30;99.90;;;;;;4979308;28;20057;-74
2022/06/19 12:22:45;;;;;;;3.38;1.33;;;16.30;99.90;;;;;;4995735;28;20041;-74
2022/06/19 12:25:18;;;;;;;2.83;0.77;;;16.30;99.90;;;;;;4995426;28;20455;-74
2022/06/19 12:28:04;;;;;;;2.30;1.13;;;16.30;99.90;;;;;;4980299;28;20096;-78
2022/06/19 12:30:39;;;;;;;2.65;1.63;;;16.30;99.90;;;;;;4981063;28;20069;-75
2022/06/19 12:33:12;;;;;;;5.82;0.70;;;16.40;99.90;;;;;;4983102;28;20047;-76
2022/06/19 12:35:43;;;;;;;5.10;1.15;;;16.50;99.90;;;;;;4984837;28;20040;-76
2022/06/19 12:38:15;;;;;;;2.38;1.38;;;16.50;99.90;;;;;;4983459;28;20531;-76
2022/06/19 12:41:19;;;;;;;1.65;0.95;;;16.40;99.90;;;;;;4982268;28;20042;-74
2022/06/19 12:44:10;;;;;;;3.83;0.88;;;16.30;99.90;;;;;;4945707;28;20062;-75
2022/06/19 12:47:10;;;;;;;3.17;1.33;;;16.40;99.90;;;;;;4974666;28;20050;-74
2022/06/19 12:50:03;;;;;;;0.60;0.60;;;16.40;99.90;;;;;;4982966;28;20061;-74
2022/06/19 12:53:36;;;;;;;3.75;1.02;;;16.40;99.90;;;;;;4981488;28;20509;-76
2022/06/19 12:56:09;;;;;;;2.85;0.88;;;16.40;99.90;;;;;;4927454;29;20047;-75
2022/06/19 12:58:43;;;;;;;2.92;1.42;;;16.50;99.90;;;;;;4978531;28;20053;-75
2022/06/19 13:01:09;;;;;;;6.60;1.35;;;16.50;99.90;;;;;;4983814;28;20489;-74
2022/06/19 13:04:11;;;;;;;2.65;0.93;;;16.60;99.90;;;;;;4983539;28;20050;-77
2022/06/19 13:07:09;;;;;;;1.23;1.10;;;16.70;99.90;;;;;;4983890;28;20073;-76
2022/06/19 13:10:27;;;;;;;6.50;1.80;;;16.80;99.90;;;;;;4983720;28;20489;-75
2022/06/19 13:13:05;;;;;;;2.08;1.40;;;16.70;99.90;;;;;;4983943;28;20046;-74
2022/06/19 13:15:47;;;;;;;1.48;1.08;;;16.70;99.90;;;;;;4998079;28;20132;-75
2022/06/19 13:18:38;;;;;;;0.93;0.80;;;16.70;99.90;;;;;;4982934;28;20615;-78
2022/06/19 13:21:47;;;;;;;3.30;1.50;;;16.60;99.90;;;;;;4982192;28;20050;-78
2022/06/19 13:24:27;;;;;;;1.48;1.30;;;16.70;99.90;;;;;;4982718;28;20042;-75
2022/06/19 13:27:21;;;;;;;4.03;1.45;;;16.70;99.90;;;;;;4981578;28;20052;-76